Hundvaag 1 weather for Apr 1994
Month no. 82
Obs.
Da.
Temp. Dew Point Precip. Wind
Speed
Wind gusts Cloud cover Press. Humidity Wind dir. Sunny OPT
01.04.1994 5,5   9,7             1  
02.04.1994 5,5   4,5             1  
03.04.1994 5,0   1,1             1  
04.04.1994 3,2   3,0                
05.04.1994 0,2   6,2                
06.04.1994 2,0   1,1                
07.04.1994 2,3   2,0             1  
08.04.1994 2,7   2,1                
09.04.1994 8,2   5,0             1  
10.04.1994 8,6   0,0             1  
11.04.1994 2,6   0,0             1  
12.04.1994 6,2   0,0             1  
13.04.1994 4,4   1,0             1  
14.04.1994 2,4   0,0             1  
15.04.1994 2,5   0,0             1  
16.04.1994 4,2   0,0             1  
17.04.1994 2,8   0,0             1  
18.04.1994 1,4   0,1             1  
19.04.1994 3,3   1,6                
20.04.1994 4,3   6,4                
21.04.1994 4,5   9,1             1  
22.04.1994 5,0   4,1             1  
23.04.1994 9,1   9,9             1  
24.04.1994 11,6   1,0             1  
25.04.1994 11,7   0,0                
26.04.1994 7,9   8,5                
27.04.1994 8,4   5,2                
28.04.1994 9,4   5,1                
29.04.1994 7,9   13,3                
30.04.1994 7,1   3,9             1  
                       
Avrg/Sum 5,3   103,9             19